Metar z połowy godziny Komunikat METAR ze strony awiacja.imgw.pl Metar G30 EPMO METAR EPMO 231230Z 17010KT 130V200 CAVOK 20/05 Q1011 =